Quantico Naval Hospital, Virginia
Current Conditions -  °F | °C
As of 2:56 PM on Monday 24 Nov 2014 (Local Time) from KNYG Reporting Station
Few Clouds Few Clouds  
Wind Chill: 66°   Ceiling: Unl
Heat Index: 66°   Visibility: 10mi
Dew Point: 50°   Wind: 14mph
Humidity: 56%   Direction: 220°SW
Pressure: 29.64"   Gusts: 22mph
Location:  38.58°N, 77.4441°W
Report Text: KNYG 241956Z 22012G19KT 10SM FEW050 19/10 A2964 RMK AO2 SLP038 T01890100 $
Loading
Personal Weather Stations






























Interactive Weather Map New forecast layout! Learn more

10-Day Weather Forecast

Advertisements
Track Severe Weather on mobile